sensor_id;sensor_type;location;lat;lon;timestamp;P1;durP1;ratioP1;P2;durP2;ratioP2
6133;SDS011;3098;42.678;23.364;2024-03-02T00:01:17;27.42;;;13.50;;
6133;SDS011;3098;42.678;23.364;2024-03-02T00:03:42;24.33;;;13.95;;
6133;SDS011;3098;42.678;23.364;2024-03-02T00:06:10;33.58;;;16.77;;
6133;SDS011;3098;42.678;23.364;2024-03-02T00:08:37;24.45;;;12.82;;
6133;SDS011;3098;42.678;23.364;2024-03-02T00:11:02;29.95;;;14.27;;
6133;SDS011;3098;42.678;23.364;2024-03-02T00:13:28;29.15;;;15.23;;
6133;SDS011;3098;42.678;23.364;2024-03-02T00:15:57;29.52;;;15.30;;
6133;SDS011;3098;42.678;23.364;2024-03-02T00:18:27;29.85;;;14.82;;
6133;SDS011;3098;42.678;23.364;2024-03-02T00:20:56;27.67;;;15.15;;
6133;SDS011;3098;42.678;23.364;2024-03-02T00:23:23;30.08;;;17.33;;
6133;SDS011;3098;42.678;23.364;2024-03-02T00:25:53;32.58;;;15.68;;
6133;SDS011;3098;42.678;23.364;2024-03-02T00:33:26;35.22;;;16.27;;
6133;SDS011;3098;42.678;23.364;2024-03-02T00:35:55;28.08;;;14.27;;
6133;SDS011;3098;42.678;23.364;2024-03-02T00:38:22;26.70;;;14.25;;
6133;SDS011;3098;42.678;23.364;2024-03-02T00:40:47;37.05;;;16.27;;
6133;SDS011;3098;42.678;23.364;2024-03-02T00:46:00;32.38;;;15.88;;
6133;SDS011;3098;42.678;23.364;2024-03-02T00:48:26;26.50;;;15.07;;
6133;SDS011;3098;42.678;23.364;2024-03-02T00:50:52;27.50;;;14.20;;
6133;SDS011;3098;42.678;23.364;2024-03-02T00:53:18;23.85;;;12.40;;
6133;SDS011;3098;42.678;23.364;2024-03-02T00:55:51;20.40;;;10.88;;
6133;SDS011;3098;42.678;23.364;2024-03-02T00:58:17;23.20;;;12.82;;
6133;SDS011;3098;42.678;23.364;2024-03-02T01:00:43;24.88;;;12.63;;
6133;SDS011;3098;42.678;23.364;2024-03-02T01:03:09;25.92;;;12.82;;
6133;SDS011;3098;42.678;23.364;2024-03-02T01:05:35;25.48;;;14.02;;
6133;SDS011;3098;42.678;23.364;2024-03-02T01:08:01;31.23;;;14.40;;
6133;SDS011;3098;42.678;23.364;2024-03-02T01:10:27;26.25;;;12.80;;
6133;SDS011;3098;42.678;23.364;2024-03-02T01:12:53;30.25;;;13.32;;
6133;SDS011;3098;42.678;23.364;2024-03-02T01:15:18;26.58;;;14.52;;
6133;SDS011;3098;42.678;23.364;2024-03-02T01:17:44;23.80;;;12.90;;
6133;SDS011;3098;42.678;23.364;2024-03-02T01:20:10;27.48;;;12.60;;
6133;SDS011;3098;42.678;23.364;2024-03-02T01:22:36;22.65;;;12.77;;
6133;SDS011;3098;42.678;23.364;2024-03-02T01:25:02;25.60;;;12.20;;
6133;SDS011;3098;42.678;23.364;2024-03-02T01:27:27;27.80;;;13.93;;
6133;SDS011;3098;42.678;23.364;2024-03-02T01:29:53;24.85;;;12.90;;
6133;SDS011;3098;42.678;23.364;2024-03-02T01:32:19;24.35;;;12.35;;
6133;SDS011;3098;42.678;23.364;2024-03-02T01:34:45;23.50;;;12.52;;
6133;SDS011;3098;42.678;23.364;2024-03-02T01:37:11;28.10;;;13.02;;
6133;SDS011;3098;42.678;23.364;2024-03-02T01:39:36;23.48;;;11.52;;
6133;SDS011;3098;42.678;23.364;2024-03-02T01:42:02;23.52;;;11.07;;
6133;SDS011;3098;42.678;23.364;2024-03-02T01:44:28;27.42;;;13.07;;
6133;SDS011;3098;42.678;23.364;2024-03-02T01:46:53;25.00;;;12.15;;
6133;SDS011;3098;42.678;23.364;2024-03-02T01:49:19;26.23;;;14.38;;
6133;SDS011;3098;42.678;23.364;2024-03-02T01:51:44;27.30;;;13.52;;
6133;SDS011;3098;42.678;23.364;2024-03-02T01:54:11;35.05;;;14.57;;
6133;SDS011;3098;42.678;23.364;2024-03-02T01:56:37;28.55;;;13.73;;
6133;SDS011;3098;42.678;23.364;2024-03-02T01:59:02;28.67;;;14.98;;
6133;SDS011;3098;42.678;23.364;2024-03-02T02:01:28;30.63;;;14.40;;
6133;SDS011;3098;42.678;23.364;2024-03-02T02:03:53;35.65;;;15.88;;
6133;SDS011;3098;42.678;23.364;2024-03-02T02:06:19;33.58;;;16.55;;
6133;SDS011;3098;42.678;23.364;2024-03-02T02:08:45;35.33;;;15.60;;
6133;SDS011;3098;42.678;23.364;2024-03-02T02:11:14;34.78;;;15.43;;
6133;SDS011;3098;42.678;23.364;2024-03-02T02:13:42;30.25;;;14.07;;
6133;SDS011;3098;42.678;23.364;2024-03-02T02:16:10;32.78;;;17.45;;
6133;SDS011;3098;42.678;23.364;2024-03-02T02:18:36;33.40;;;15.43;;
6133;SDS011;3098;42.678;23.364;2024-03-02T02:21:02;32.78;;;16.80;;
6133;SDS011;3098;42.678;23.364;2024-03-02T02:23:28;31.45;;;15.57;;
6133;SDS011;3098;42.678;23.364;2024-03-02T02:25:54;36.00;;;19.02;;
6133;SDS011;3098;42.678;23.364;2024-03-02T02:28:19;33.38;;;17.10;;
6133;SDS011;3098;42.678;23.364;2024-03-02T02:30:45;31.15;;;14.15;;
6133;SDS011;3098;42.678;23.364;2024-03-02T02:33:11;29.88;;;15.02;;
6133;SDS011;3098;42.678;23.364;2024-03-02T02:35:37;25.48;;;12.43;;
6133;SDS011;3098;42.678;23.364;2024-03-02T02:38:02;32.90;;;16.10;;
6133;SDS011;3098;42.678;23.364;2024-03-02T02:40:28;30.65;;;15.60;;
6133;SDS011;3098;42.678;23.364;2024-03-02T02:42:57;25.35;;;13.63;;
6133;SDS011;3098;42.678;23.364;2024-03-02T02:45:26;30.90;;;13.35;;
6133;SDS011;3098;42.678;23.364;2024-03-02T02:47:52;23.40;;;12.38;;
6133;SDS011;3098;42.678;23.364;2024-03-02T02:50:17;28.00;;;13.93;;
6133;SDS011;3098;42.678;23.364;2024-03-02T02:52:43;25.20;;;11.50;;
6133;SDS011;3098;42.678;23.364;2024-03-02T02:55:09;32.92;;;15.65;;
6133;SDS011;3098;42.678;23.364;2024-03-02T02:57:37;36.80;;;16.25;;
6133;SDS011;3098;42.678;23.364;2024-03-02T03:00:08;31.70;;;15.57;;
6133;SDS011;3098;42.678;23.364;2024-03-02T03:02:38;32.40;;;16.10;;
6133;SDS011;3098;42.678;23.364;2024-03-02T03:05:12;37.35;;;17.65;;
6133;SDS011;3098;42.678;23.364;2024-03-02T03:07:39;29.30;;;13.65;;
6133;SDS011;3098;42.678;23.364;2024-03-02T03:10:06;36.28;;;18.25;;
6133;SDS011;3098;42.678;23.364;2024-03-02T03:12:33;39.28;;;19.23;;
6133;SDS011;3098;42.678;23.364;2024-03-02T03:14:59;36.17;;;17.23;;
6133;SDS011;3098;42.678;23.364;2024-03-02T03:17:25;34.67;;;17.58;;
6133;SDS011;3098;42.678;23.364;2024-03-02T03:19:52;31.58;;;16.83;;
6133;SDS011;3098;42.678;23.364;2024-03-02T03:22:17;36.17;;;17.73;;
6133;SDS011;3098;42.678;23.364;2024-03-02T03:24:43;34.35;;;16.42;;
6133;SDS011;3098;42.678;23.364;2024-03-02T03:27:09;33.30;;;17.17;;
6133;SDS011;3098;42.678;23.364;2024-03-02T03:29:36;37.25;;;17.90;;
6133;SDS011;3098;42.678;23.364;2024-03-02T03:32:02;36.10;;;17.33;;
6133;SDS011;3098;42.678;23.364;2024-03-02T03:34:29;34.65;;;17.52;;
6133;SDS011;3098;42.678;23.364;2024-03-02T03:36:57;35.97;;;15.95;;
6133;SDS011;3098;42.678;23.364;2024-03-02T03:39:23;37.35;;;17.83;;
6133;SDS011;3098;42.678;23.364;2024-03-02T03:41:48;35.63;;;17.58;;
6133;SDS011;3098;42.678;23.364;2024-03-02T03:44:14;36.47;;;16.90;;
6133;SDS011;3098;42.678;23.364;2024-03-02T03:46:39;36.85;;;17.27;;
6133;SDS011;3098;42.678;23.364;2024-03-02T03:49:05;36.28;;;17.65;;
6133;SDS011;3098;42.678;23.364;2024-03-02T03:51:30;35.83;;;18.35;;
6133;SDS011;3098;42.678;23.364;2024-03-02T03:53:56;37.08;;;16.10;;
6133;SDS011;3098;42.678;23.364;2024-03-02T03:56:21;37.70;;;18.52;;
6133;SDS011;3098;42.678;23.364;2024-03-02T03:58:47;35.65;;;17.92;;
6133;SDS011;3098;42.678;23.364;2024-03-02T04:01:12;35.00;;;17.33;;
6133;SDS011;3098;42.678;23.364;2024-03-02T04:03:38;32.42;;;16.00;;
6133;SDS011;3098;42.678;23.364;2024-03-02T04:06:03;34.10;;;15.93;;
6133;SDS011;3098;42.678;23.364;2024-03-02T04:08:29;34.90;;;16.98;;
6133;SDS011;3098;42.678;23.364;2024-03-02T04:10:55;35.83;;;17.15;;
6133;SDS011;3098;42.678;23.364;2024-03-02T04:13:21;41.95;;;19.42;;
6133;SDS011;3098;42.678;23.364;2024-03-02T04:15:46;36.60;;;17.75;;
6133;SDS011;3098;42.678;23.364;2024-03-02T04:18:12;43.58;;;18.40;;
6133;SDS011;3098;42.678;23.364;2024-03-02T04:20:38;37.25;;;16.65;;
6133;SDS011;3098;42.678;23.364;2024-03-02T04:23:03;33.03;;;16.48;;
6133;SDS011;3098;42.678;23.364;2024-03-02T04:25:29;36.22;;;16.42;;
6133;SDS011;3098;42.678;23.364;2024-03-02T04:27:55;31.17;;;16.23;;
6133;SDS011;3098;42.678;23.364;2024-03-02T04:30:20;33.75;;;16.13;;
6133;SDS011;3098;42.678;23.364;2024-03-02T04:32:46;36.10;;;16.10;;
6133;SDS011;3098;42.678;23.364;2024-03-02T04:35:11;34.78;;;16.77;;
6133;SDS011;3098;42.678;23.364;2024-03-02T04:37:38;42.72;;;17.83;;
6133;SDS011;3098;42.678;23.364;2024-03-02T04:40:03;35.22;;;16.02;;
6133;SDS011;3098;42.678;23.364;2024-03-02T04:42:33;43.13;;;20.00;;
6133;SDS011;3098;42.678;23.364;2024-03-02T04:44:58;36.58;;;15.65;;
6133;SDS011;3098;42.678;23.364;2024-03-02T04:47:24;36.08;;;18.60;;
6133;SDS011;3098;42.678;23.364;2024-03-02T04:49:49;40.05;;;17.90;;
6133;SDS011;3098;42.678;23.364;2024-03-02T04:52:15;37.28;;;17.30;;
6133;SDS011;3098;42.678;23.364;2024-03-02T04:54:41;42.58;;;18.08;;
6133;SDS011;3098;42.678;23.364;2024-03-02T04:57:25;41.58;;;20.40;;
6133;SDS011;3098;42.678;23.364;2024-03-02T04:59:50;38.53;;;18.45;;
6133;SDS011;3098;42.678;23.364;2024-03-02T05:02:16;45.75;;;18.90;;
6133;SDS011;3098;42.678;23.364;2024-03-02T05:04:41;39.78;;;17.17;;
6133;SDS011;3098;42.678;23.364;2024-03-02T05:07:07;42.22;;;18.17;;
6133;SDS011;3098;42.678;23.364;2024-03-02T05:09:32;46.70;;;20.60;;
6133;SDS011;3098;42.678;23.364;2024-03-02T05:11:58;35.75;;;17.48;;
6133;SDS011;3098;42.678;23.364;2024-03-02T05:14:42;37.40;;;18.17;;
6133;SDS011;3098;42.678;23.364;2024-03-02T05:17:08;42.50;;;19.90;;
6133;SDS011;3098;42.678;23.364;2024-03-02T05:19:33;41.28;;;18.27;;
6133;SDS011;3098;42.678;23.364;2024-03-02T05:21:59;46.20;;;19.40;;
6133;SDS011;3098;42.678;23.364;2024-03-02T05:24:25;44.53;;;19.50;;
6133;SDS011;3098;42.678;23.364;2024-03-02T05:26:54;38.17;;;17.92;;
6133;SDS011;3098;42.678;23.364;2024-03-02T05:29:19;48.00;;;19.48;;
6133;SDS011;3098;42.678;23.364;2024-03-02T05:31:45;41.80;;;19.02;;
6133;SDS011;3098;42.678;23.364;2024-03-02T05:34:11;40.17;;;17.65;;
6133;SDS011;3098;42.678;23.364;2024-03-02T05:36:36;43.15;;;20.38;;
6133;SDS011;3098;42.678;23.364;2024-03-02T05:39:03;37.80;;;17.40;;
6133;SDS011;3098;42.678;23.364;2024-03-02T05:41:31;40.92;;;19.45;;
6133;SDS011;3098;42.678;23.364;2024-03-02T05:43:56;43.00;;;19.15;;
6133;SDS011;3098;42.678;23.364;2024-03-02T05:46:22;43.30;;;19.00;;
6133;SDS011;3098;42.678;23.364;2024-03-02T05:48:47;45.78;;;19.88;;
6133;SDS011;3098;42.678;23.364;2024-03-02T05:51:13;41.25;;;17.85;;
6133;SDS011;3098;42.678;23.364;2024-03-02T05:53:38;39.05;;;18.70;;
6133;SDS011;3098;42.678;23.364;2024-03-02T05:56:04;42.92;;;18.65;;
6133;SDS011;3098;42.678;23.364;2024-03-02T05:58:31;43.30;;;18.17;;
6133;SDS011;3098;42.678;23.364;2024-03-02T06:01:18;43.13;;;18.40;;
6133;SDS011;3098;42.678;23.364;2024-03-02T06:03:44;44.33;;;18.48;;
6133;SDS011;3098;42.678;23.364;2024-03-02T06:06:09;40.30;;;17.83;;
6133;SDS011;3098;42.678;23.364;2024-03-02T06:08:35;40.22;;;18.65;;
6133;SDS011;3098;42.678;23.364;2024-03-02T06:11:01;43.97;;;17.98;;
6133;SDS011;3098;42.678;23.364;2024-03-02T06:13:26;44.17;;;19.17;;
6133;SDS011;3098;42.678;23.364;2024-03-02T06:15:52;50.70;;;19.88;;
6133;SDS011;3098;42.678;23.364;2024-03-02T06:18:18;43.08;;;19.55;;
6133;SDS011;3098;42.678;23.364;2024-03-02T06:20:43;40.55;;;18.88;;
6133;SDS011;3098;42.678;23.364;2024-03-02T06:23:09;43.03;;;17.77;;
6133;SDS011;3098;42.678;23.364;2024-03-02T06:25:35;46.78;;;19.52;;
6133;SDS011;3098;42.678;23.364;2024-03-02T06:28:00;46.30;;;19.98;;
6133;SDS011;3098;42.678;23.364;2024-03-02T06:30:26;42.00;;;18.25;;
6133;SDS011;3098;42.678;23.364;2024-03-02T06:32:52;46.95;;;19.10;;
6133;SDS011;3098;42.678;23.364;2024-03-02T06:35:17;44.33;;;19.35;;
6133;SDS011;3098;42.678;23.364;2024-03-02T06:37:43;45.05;;;17.33;;
6133;SDS011;3098;42.678;23.364;2024-03-02T06:40:09;46.13;;;18.38;;
6133;SDS011;3098;42.678;23.364;2024-03-02T06:42:35;43.28;;;19.20;;
6133;SDS011;3098;42.678;23.364;2024-03-02T06:45:01;43.72;;;19.15;;
6133;SDS011;3098;42.678;23.364;2024-03-02T06:47:27;41.35;;;19.05;;
6133;SDS011;3098;42.678;23.364;2024-03-02T06:49:53;43.45;;;18.17;;
6133;SDS011;3098;42.678;23.364;2024-03-02T06:52:19;50.97;;;21.30;;
6133;SDS011;3098;42.678;23.364;2024-03-02T06:54:45;59.50;;;22.45;;
6133;SDS011;3098;42.678;23.364;2024-03-02T06:57:11;45.58;;;20.45;;
6133;SDS011;3098;42.678;23.364;2024-03-02T06:59:37;53.25;;;20.00;;
6133;SDS011;3098;42.678;23.364;2024-03-02T07:02:03;54.65;;;21.77;;
6133;SDS011;3098;42.678;23.364;2024-03-02T07:04:28;43.88;;;19.35;;
6133;SDS011;3098;42.678;23.364;2024-03-02T07:06:54;48.20;;;19.60;;
6133;SDS011;3098;42.678;23.364;2024-03-02T07:09:20;49.10;;;21.15;;
6133;SDS011;3098;42.678;23.364;2024-03-02T07:11:48;48.25;;;20.48;;
6133;SDS011;3098;42.678;23.364;2024-03-02T07:14:14;44.13;;;19.85;;
6133;SDS011;3098;42.678;23.364;2024-03-02T07:16:39;44.10;;;18.85;;
6133;SDS011;3098;42.678;23.364;2024-03-02T07:19:05;45.65;;;19.17;;
6133;SDS011;3098;42.678;23.364;2024-03-02T07:21:34;44.03;;;17.55;;
6133;SDS011;3098;42.678;23.364;2024-03-02T07:24:00;45.53;;;20.00;;
6133;SDS011;3098;42.678;23.364;2024-03-02T07:26:28;34.95;;;15.52;;
6133;SDS011;3098;42.678;23.364;2024-03-02T07:28:56;41.97;;;19.05;;
6133;SDS011;3098;42.678;23.364;2024-03-02T07:31:22;39.63;;;17.92;;
6133;SDS011;3098;42.678;23.364;2024-03-02T07:33:47;46.00;;;18.85;;
6133;SDS011;3098;42.678;23.364;2024-03-02T07:36:13;37.63;;;17.00;;
6133;SDS011;3098;42.678;23.364;2024-03-02T07:38:39;44.15;;;17.67;;
6133;SDS011;3098;42.678;23.364;2024-03-02T07:41:05;40.05;;;15.70;;
6133;SDS011;3098;42.678;23.364;2024-03-02T07:43:31;38.00;;;16.95;;
6133;SDS011;3098;42.678;23.364;2024-03-02T07:45:58;40.47;;;18.65;;
6133;SDS011;3098;42.678;23.364;2024-03-02T07:48:24;39.13;;;17.35;;
6133;SDS011;3098;42.678;23.364;2024-03-02T07:50:50;47.20;;;17.92;;
6133;SDS011;3098;42.678;23.364;2024-03-02T07:53:17;40.75;;;16.15;;
6133;SDS011;3098;42.678;23.364;2024-03-02T07:55:43;39.35;;;16.40;;
6133;SDS011;3098;42.678;23.364;2024-03-02T07:58:09;38.03;;;16.20;;
6133;SDS011;3098;42.678;23.364;2024-03-02T08:00:38;39.38;;;18.05;;
6133;SDS011;3098;42.678;23.364;2024-03-02T08:03:06;34.22;;;18.00;;
6133;SDS011;3098;42.678;23.364;2024-03-02T08:05:32;34.25;;;15.00;;
6133;SDS011;3098;42.678;23.364;2024-03-02T08:07:58;51.38;;;18.58;;
6133;SDS011;3098;42.678;23.364;2024-03-02T08:10:24;44.88;;;16.42;;
6133;SDS011;3098;42.678;23.364;2024-03-02T08:12:50;37.70;;;16.58;;
6133;SDS011;3098;42.678;23.364;2024-03-02T08:15:15;41.67;;;17.77;;
6133;SDS011;3098;42.678;23.364;2024-03-02T08:17:41;36.83;;;17.45;;
6133;SDS011;3098;42.678;23.364;2024-03-02T08:20:11;43.35;;;19.98;;
6133;SDS011;3098;42.678;23.364;2024-03-02T08:22:37;39.25;;;16.95;;
6133;SDS011;3098;42.678;23.364;2024-03-02T08:25:03;37.80;;;18.10;;
6133;SDS011;3098;42.678;23.364;2024-03-02T08:27:30;43.00;;;18.83;;
6133;SDS011;3098;42.678;23.364;2024-03-02T08:29:57;37.50;;;17.88;;
6133;SDS011;3098;42.678;23.364;2024-03-02T08:32:22;42.95;;;17.70;;
6133;SDS011;3098;42.678;23.364;2024-03-02T08:34:48;48.20;;;19.73;;
6133;SDS011;3098;42.678;23.364;2024-03-02T08:37:13;115.50;;;61.22;;
6133;SDS011;3098;42.678;23.364;2024-03-02T08:39:39;67.57;;;31.13;;
6133;SDS011;3098;42.678;23.364;2024-03-02T08:42:04;45.38;;;20.92;;
6133;SDS011;3098;42.678;23.364;2024-03-02T08:44:30;45.50;;;19.10;;
6133;SDS011;3098;42.678;23.364;2024-03-02T08:46:56;42.22;;;17.55;;
6133;SDS011;3098;42.678;23.364;2024-03-02T08:49:22;39.00;;;16.75;;
6133;SDS011;3098;42.678;23.364;2024-03-02T08:51:47;35.85;;;16.23;;
6133;SDS011;3098;42.678;23.364;2024-03-02T08:54:20;34.03;;;15.32;;
6133;SDS011;3098;42.678;23.364;2024-03-02T08:56:47;32.30;;;17.35;;
6133;SDS011;3098;42.678;23.364;2024-03-02T08:59:16;42.45;;;19.00;;
6133;SDS011;3098;42.678;23.364;2024-03-02T09:01:42;36.28;;;15.88;;
6133;SDS011;3098;42.678;23.364;2024-03-02T09:04:08;40.22;;;18.13;;
6133;SDS011;3098;42.678;23.364;2024-03-02T09:06:34;28.60;;;14.32;;
6133;SDS011;3098;42.678;23.364;2024-03-02T09:09:00;33.45;;;15.80;;
6133;SDS011;3098;42.678;23.364;2024-03-02T09:11:26;31.35;;;15.50;;
6133;SDS011;3098;42.678;23.364;2024-03-02T09:13:52;38.42;;;17.67;;
6133;SDS011;3098;42.678;23.364;2024-03-02T09:16:18;30.10;;;14.93;;
6133;SDS011;3098;42.678;23.364;2024-03-02T09:18:44;29.75;;;14.20;;
6133;SDS011;3098;42.678;23.364;2024-03-02T09:21:10;32.00;;;15.98;;
6133;SDS011;3098;42.678;23.364;2024-03-02T09:23:36;24.60;;;13.40;;
6133;SDS011;3098;42.678;23.364;2024-03-02T09:26:01;24.27;;;13.02;;
6133;SDS011;3098;42.678;23.364;2024-03-02T09:28:28;27.50;;;14.30;;
6133;SDS011;3098;42.678;23.364;2024-03-02T09:30:54;27.83;;;13.93;;
6133;SDS011;3098;42.678;23.364;2024-03-02T09:33:19;29.88;;;16.02;;
6133;SDS011;3098;42.678;23.364;2024-03-02T09:35:46;36.67;;;15.45;;
6133;SDS011;3098;42.678;23.364;2024-03-02T09:38:14;34.22;;;15.10;;
6133;SDS011;3098;42.678;23.364;2024-03-02T09:40:41;31.05;;;14.25;;
6133;SDS011;3098;42.678;23.364;2024-03-02T09:43:07;51.88;;;28.65;;
6133;SDS011;3098;42.678;23.364;2024-03-02T09:45:33;46.92;;;20.73;;
6133;SDS011;3098;42.678;23.364;2024-03-02T09:47:59;25.30;;;12.57;;
6133;SDS011;3098;42.678;23.364;2024-03-02T09:50:25;36.35;;;16.55;;
6133;SDS011;3098;42.678;23.364;2024-03-02T09:52:51;36.25;;;16.00;;
6133;SDS011;3098;42.678;23.364;2024-03-02T09:55:19;34.67;;;16.45;;
6133;SDS011;3098;42.678;23.364;2024-03-02T09:57:46;31.75;;;15.30;;
6133;SDS011;3098;42.678;23.364;2024-03-02T10:00:13;33.42;;;15.73;;
6133;SDS011;3098;42.678;23.364;2024-03-02T10:02:43;28.95;;;15.30;;
6133;SDS011;3098;42.678;23.364;2024-03-02T10:05:09;33.67;;;15.38;;
6133;SDS011;3098;42.678;23.364;2024-03-02T10:07:35;32.90;;;13.70;;
6133;SDS011;3098;42.678;23.364;2024-03-02T10:10:13;28.33;;;14.13;;
6133;SDS011;3098;42.678;23.364;2024-03-02T10:12:40;29.80;;;13.20;;
6133;SDS011;3098;42.678;23.364;2024-03-02T10:15:07;31.17;;;15.32;;
6133;SDS011;3098;42.678;23.364;2024-03-02T10:17:34;30.70;;;14.98;;
6133;SDS011;3098;42.678;23.364;2024-03-02T10:22:49;32.22;;;15.80;;
6133;SDS011;3098;42.678;23.364;2024-03-02T10:25:31;34.50;;;15.40;;
6133;SDS011;3098;42.678;23.364;2024-03-02T10:28:00;27.50;;;14.50;;
6133;SDS011;3098;42.678;23.364;2024-03-02T10:30:26;32.15;;;15.55;;
6133;SDS011;3098;42.678;23.364;2024-03-02T10:32:53;35.90;;;15.80;;
6133;SDS011;3098;42.678;23.364;2024-03-02T10:35:20;25.77;;;13.07;;
6133;SDS011;3098;42.678;23.364;2024-03-02T10:37:48;25.23;;;12.18;;
6133;SDS011;3098;42.678;23.364;2024-03-02T10:40:23;26.58;;;10.95;;
6133;SDS011;3098;42.678;23.364;2024-03-02T10:42:51;24.08;;;11.05;;
6133;SDS011;3098;42.678;23.364;2024-03-02T10:45:17;26.08;;;12.40;;
6133;SDS011;3098;42.678;23.364;2024-03-02T10:47:48;20.83;;;12.38;;
6133;SDS011;3098;42.678;23.364;2024-03-02T10:50:15;22.05;;;12.70;;
6133;SDS011;3098;42.678;23.364;2024-03-02T10:52:40;25.50;;;13.40;;
6133;SDS011;3098;42.678;23.364;2024-03-02T10:55:07;27.05;;;13.10;;
6133;SDS011;3098;42.678;23.364;2024-03-02T10:57:53;25.42;;;13.18;;
6133;SDS011;3098;42.678;23.364;2024-03-02T11:00:21;31.98;;;14.80;;
6133;SDS011;3098;42.678;23.364;2024-03-02T11:02:58;30.50;;;13.98;;
6133;SDS011;3098;42.678;23.364;2024-03-02T11:05:36;32.08;;;16.50;;
6133;SDS011;3098;42.678;23.364;2024-03-02T11:08:07;25.33;;;14.23;;
6133;SDS011;3098;42.678;23.364;2024-03-02T11:10:34;30.20;;;15.05;;
6133;SDS011;3098;42.678;23.364;2024-03-02T11:13:05;30.33;;;15.15;;
6133;SDS011;3098;42.678;23.364;2024-03-02T11:15:34;26.70;;;14.25;;
6133;SDS011;3098;42.678;23.364;2024-03-02T11:18:03;26.10;;;12.90;;
6133;SDS011;3098;42.678;23.364;2024-03-02T11:20:34;28.27;;;13.93;;
6133;SDS011;3098;42.678;23.364;2024-03-02T11:23:07;25.60;;;12.40;;
6133;SDS011;3098;42.678;23.364;2024-03-02T11:25:33;22.98;;;12.73;;
6133;SDS011;3098;42.678;23.364;2024-03-02T11:27:59;28.48;;;12.63;;
6133;SDS011;3098;42.678;23.364;2024-03-02T11:35:36;27.25;;;13.60;;
6133;SDS011;3098;42.678;23.364;2024-03-02T11:38:12;23.70;;;12.88;;
6133;SDS011;3098;42.678;23.364;2024-03-02T11:40:41;30.17;;;13.93;;
6133;SDS011;3098;42.678;23.364;2024-03-02T11:43:07;29.67;;;13.68;;
6133;SDS011;3098;42.678;23.364;2024-03-02T11:45:33;30.80;;;13.88;;
6133;SDS011;3098;42.678;23.364;2024-03-02T11:48:05;29.08;;;13.80;;
6133;SDS011;3098;42.678;23.364;2024-03-02T11:53:03;26.75;;;13.20;;
6133;SDS011;3098;42.678;23.364;2024-03-02T11:55:31;20.02;;;10.75;;
6133;SDS011;3098;42.678;23.364;2024-03-02T11:58:06;23.67;;;11.57;;
6133;SDS011;3098;42.678;23.364;2024-03-02T12:00:32;20.20;;;10.50;;
6133;SDS011;3098;42.678;23.364;2024-03-02T12:05:31;20.85;;;10.85;;
6133;SDS011;3098;42.678;23.364;2024-03-02T12:08:00;17.45;;;10.25;;
6133;SDS011;3098;42.678;23.364;2024-03-02T12:10:31;24.25;;;13.70;;
6133;SDS011;3098;42.678;23.364;2024-03-02T12:12:58;21.48;;;10.80;;
6133;SDS011;3098;42.678;23.364;2024-03-02T12:15:25;22.17;;;11.60;;
6133;SDS011;3098;42.678;23.364;2024-03-02T12:17:52;30.08;;;12.82;;
6133;SDS011;3098;42.678;23.364;2024-03-02T12:20:22;23.75;;;12.30;;
6133;SDS011;3098;42.678;23.364;2024-03-02T12:22:49;22.42;;;12.35;;
6133;SDS011;3098;42.678;23.364;2024-03-02T12:25:18;20.63;;;10.88;;
6133;SDS011;3098;42.678;23.364;2024-03-02T12:27:52;18.92;;;10.85;;
6133;SDS011;3098;42.678;23.364;2024-03-02T12:30:19;16.48;;;9.05;;
6133;SDS011;3098;42.678;23.364;2024-03-02T12:32:46;23.50;;;10.98;;
6133;SDS011;3098;42.678;23.364;2024-03-02T12:35:13;17.85;;;10.82;;
6133;SDS011;3098;42.678;23.364;2024-03-02T12:40:15;18.73;;;11.07;;
6133;SDS011;3098;42.678;23.364;2024-03-02T12:42:45;20.25;;;11.52;;
6133;SDS011;3098;42.678;23.364;2024-03-02T12:45:12;21.48;;;11.38;;
6133;SDS011;3098;42.678;23.364;2024-03-02T12:47:44;21.30;;;10.73;;
6133;SDS011;3098;42.678;23.364;2024-03-02T12:50:13;20.52;;;10.95;;
6133;SDS011;3098;42.678;23.364;2024-03-02T12:52:42;18.52;;;11.15;;
6133;SDS011;3098;42.678;23.364;2024-03-02T12:55:08;17.48;;;9.75;;
6133;SDS011;3098;42.678;23.364;2024-03-02T12:57:34;19.90;;;10.55;;
6133;SDS011;3098;42.678;23.364;2024-03-02T13:00:05;17.42;;;9.00;;
6133;SDS011;3098;42.678;23.364;2024-03-02T13:02:34;17.50;;;9.07;;
6133;SDS011;3098;42.678;23.364;2024-03-02T13:05:05;14.10;;;7.68;;
6133;SDS011;3098;42.678;23.364;2024-03-02T13:07:36;16.20;;;9.35;;
6133;SDS011;3098;42.678;23.364;2024-03-02T13:10:03;17.25;;;9.15;;
6133;SDS011;3098;42.678;23.364;2024-03-02T13:12:32;16.15;;;8.93;;
6133;SDS011;3098;42.678;23.364;2024-03-02T13:14:58;18.67;;;10.80;;
6133;SDS011;3098;42.678;23.364;2024-03-02T13:17:24;15.18;;;8.85;;
6133;SDS011;3098;42.678;23.364;2024-03-02T13:19:53;15.90;;;9.45;;
6133;SDS011;3098;42.678;23.364;2024-03-02T13:22:20;17.23;;;9.52;;
6133;SDS011;3098;42.678;23.364;2024-03-02T13:24:47;18.73;;;10.10;;
6133;SDS011;3098;42.678;23.364;2024-03-02T13:27:13;18.50;;;10.25;;
6133;SDS011;3098;42.678;23.364;2024-03-02T13:29:39;19.45;;;10.85;;
6133;SDS011;3098;42.678;23.364;2024-03-02T13:32:05;22.38;;;11.23;;
6133;SDS011;3098;42.678;23.364;2024-03-02T13:34:31;20.90;;;10.98;;
6133;SDS011;3098;42.678;23.364;2024-03-02T13:36:57;19.25;;;11.30;;
6133;SDS011;3098;42.678;23.364;2024-03-02T13:39:26;17.13;;;10.30;;
6133;SDS011;3098;42.678;23.364;2024-03-02T13:41:52;16.63;;;10.77;;
6133;SDS011;3098;42.678;23.364;2024-03-02T13:44:22;24.80;;;11.52;;
6133;SDS011;3098;42.678;23.364;2024-03-02T13:46:48;19.70;;;10.25;;
6133;SDS011;3098;42.678;23.364;2024-03-02T13:49:14;21.85;;;11.73;;
6133;SDS011;3098;42.678;23.364;2024-03-02T13:51:40;19.50;;;10.77;;
6133;SDS011;3098;42.678;23.364;2024-03-02T13:54:05;19.95;;;10.65;;
6133;SDS011;3098;42.678;23.364;2024-03-02T13:56:32;17.45;;;10.70;;
6133;SDS011;3098;42.678;23.364;2024-03-02T13:59:00;15.38;;;9.25;;
6133;SDS011;3098;42.678;23.364;2024-03-02T14:01:26;20.98;;;11.05;;
6133;SDS011;3098;42.678;23.364;2024-03-02T14:03:51;15.98;;;9.13;;
6133;SDS011;3098;42.678;23.364;2024-03-02T14:06:19;20.13;;;11.20;;
6133;SDS011;3098;42.678;23.364;2024-03-02T14:08:45;19.63;;;11.52;;
6133;SDS011;3098;42.678;23.364;2024-03-02T14:11:13;17.45;;;10.45;;
6133;SDS011;3098;42.678;23.364;2024-03-02T14:13:41;20.63;;;11.13;;
6133;SDS011;3098;42.678;23.364;2024-03-02T14:16:06;20.95;;;11.07;;
6133;SDS011;3098;42.678;23.364;2024-03-02T14:18:34;18.13;;;10.57;;
6133;SDS011;3098;42.678;23.364;2024-03-02T14:20:59;19.98;;;11.15;;
6133;SDS011;3098;42.678;23.364;2024-03-02T14:23:25;20.48;;;11.40;;
6133;SDS011;3098;42.678;23.364;2024-03-02T14:25:53;22.90;;;12.15;;
6133;SDS011;3098;42.678;23.364;2024-03-02T14:28:19;21.65;;;11.25;;
6133;SDS011;3098;42.678;23.364;2024-03-02T14:30:45;24.15;;;13.55;;
6133;SDS011;3098;42.678;23.364;2024-03-02T14:33:10;20.90;;;11.98;;
6133;SDS011;3098;42.678;23.364;2024-03-02T14:35:40;24.13;;;13.65;;
6133;SDS011;3098;42.678;23.364;2024-03-02T14:38:05;22.95;;;13.70;;
6133;SDS011;3098;42.678;23.364;2024-03-02T14:40:31;24.27;;;12.77;;
6133;SDS011;3098;42.678;23.364;2024-03-02T14:42:57;24.20;;;13.32;;
6133;SDS011;3098;42.678;23.364;2024-03-02T14:45:22;23.85;;;13.52;;
6133;SDS011;3098;42.678;23.364;2024-03-02T14:47:49;22.45;;;13.20;;
6133;SDS011;3098;42.678;23.364;2024-03-02T14:50:15;26.77;;;15.05;;
6133;SDS011;3098;42.678;23.364;2024-03-02T14:52:42;28.05;;;14.63;;
6133;SDS011;3098;42.678;23.364;2024-03-02T14:55:09;24.55;;;14.30;;
6133;SDS011;3098;42.678;23.364;2024-03-02T14:57:35;26.75;;;13.80;;